createdAt,value
2022-12-17T00:03:54.258Z,-1.70
2022-12-17T00:11:17.455Z,-1.60
2022-12-17T00:18:36.879Z,-1.50
2022-12-17T00:25:56.003Z,-1.50
2022-12-17T00:33:14.903Z,-1.50
2022-12-17T00:40:35.720Z,-1.40
2022-12-17T00:47:54.496Z,-1.40
2022-12-17T00:55:13.500Z,-1.30
2022-12-17T01:02:32.470Z,-1.30
2022-12-17T01:09:51.252Z,-1.40
2022-12-17T01:17:10.405Z,-1.40
2022-12-17T01:24:29.318Z,-1.40
2022-12-17T01:31:48.371Z,-1.40
2022-12-17T01:39:08.830Z,-1.30
2022-12-17T01:46:28.096Z,-1.30
2022-12-17T01:53:52.102Z,-1.30
2022-12-17T02:01:11.319Z,-1.30
2022-12-17T02:08:42.718Z,-1.30
2022-12-17T02:16:20.475Z,-1.30
2022-12-17T02:24:05.525Z,-1.40
2022-12-17T02:31:26.548Z,-1.40
2022-12-17T02:38:49.365Z,-1.40
2022-12-17T02:46:09.251Z,-1.40
2022-12-17T02:53:28.858Z,-1.50
2022-12-17T03:00:48.112Z,-1.50
2022-12-17T03:08:07.240Z,-1.60
2022-12-17T03:15:26.963Z,-1.60
2022-12-17T03:22:46.023Z,-1.60
2022-12-17T03:30:05.049Z,-1.60
2022-12-17T03:37:24.605Z,-1.70
2022-12-17T03:44:43.404Z,-1.70
2022-12-17T03:52:02.422Z,-1.80
2022-12-17T03:59:21.448Z,-1.80
2022-12-17T04:06:40.334Z,-1.80
2022-12-17T04:13:59.319Z,-1.80
2022-12-17T04:21:18.428Z,-1.90
2022-12-17T04:28:37.478Z,-2.00
2022-12-17T04:35:56.603Z,-2.00
2022-12-17T04:43:15.963Z,-2.00
2022-12-17T04:50:34.860Z,-2.00
2022-12-17T04:57:53.769Z,-2.20
2022-12-17T05:05:12.704Z,-2.40
2022-12-17T05:12:33.428Z,-2.50
2022-12-17T05:19:52.364Z,-2.60
2022-12-17T05:27:11.451Z,-2.70
2022-12-17T05:34:30.368Z,-2.80
2022-12-17T05:41:49.283Z,-2.80
2022-12-17T05:49:08.404Z,-2.80
2022-12-17T05:56:27.201Z,-2.90
2022-12-17T06:03:46.191Z,-3.00
2022-12-17T06:11:05.040Z,-3.10
2022-12-17T06:18:23.844Z,-3.20
2022-12-17T06:25:42.938Z,-3.20
2022-12-17T06:33:02.018Z,-3.30
2022-12-17T06:40:21.266Z,-3.40
2022-12-17T06:47:40.674Z,-3.50
2022-12-17T06:54:59.492Z,-3.60
2022-12-17T07:02:18.658Z,-3.70
2022-12-17T07:09:37.296Z,-3.80
2022-12-17T07:16:56.442Z,-3.90
2022-12-17T07:24:15.408Z,-4.00
2022-12-17T07:31:34.474Z,-4.00
2022-12-17T07:38:53.468Z,-4.20
2022-12-17T07:46:12.526Z,-4.40
2022-12-17T07:53:31.508Z,-4.50
2022-12-17T08:00:50.645Z,-4.50
2022-12-17T08:08:09.555Z,-4.60
2022-12-17T08:15:28.914Z,-4.60
2022-12-17T08:22:47.811Z,-4.70
2022-12-17T08:30:06.871Z,-4.90
2022-12-17T08:37:25.676Z,-4.90
2022-12-17T08:44:44.531Z,-4.90
2022-12-17T08:52:03.604Z,-4.90
2022-12-17T08:59:22.590Z,-4.90
2022-12-17T09:06:41.629Z,-4.90
2022-12-17T09:14:00.556Z,-4.90
2022-12-17T09:21:19.715Z,-4.80
2022-12-17T09:28:38.765Z,-4.70
2022-12-17T09:35:58.170Z,-4.60
2022-12-17T09:43:23.429Z,-4.60
2022-12-17T09:50:43.291Z,-4.60
2022-12-17T09:58:02.905Z,-4.60
2022-12-17T10:05:25.628Z,-4.60
2022-12-17T10:12:44.645Z,-4.60
2022-12-17T10:20:07.356Z,-4.60
2022-12-17T10:27:30.052Z,-4.50
2022-12-17T10:34:57.418Z,-4.40
2022-12-17T10:42:21.760Z,-4.30
2022-12-17T10:49:43.232Z,-4.30
2022-12-17T10:57:11.599Z,-4.20
2022-12-17T11:04:47.401Z,-4.20
2022-12-17T11:12:07.916Z,-4.10
2022-12-17T11:19:30.148Z,-4.00
2022-12-17T11:26:53.846Z,-3.90
2022-12-17T11:34:24.133Z,-3.90
2022-12-17T11:42:11.744Z,-3.70
2022-12-17T11:49:49.322Z,-3.60
2022-12-17T11:57:15.854Z,-3.50
2022-12-17T12:05:01.323Z,-3.40
2022-12-17T12:12:23.483Z,-3.40
2022-12-17T12:19:55.528Z,-3.30
2022-12-17T12:27:21.474Z,-3.40
2022-12-17T12:34:45.716Z,-3.40
2022-12-17T12:42:20.086Z,-3.30
2022-12-17T12:50:11.919Z,-3.10
2022-12-17T12:57:44.156Z,-3.10
2022-12-17T13:05:03.138Z,-3.00
2022-12-17T13:12:03.877Z,-2.90
2022-12-17T13:19:24.516Z,-2.80
2022-12-17T13:26:39.988Z,-2.60
2022-12-17T13:33:52.868Z,-2.50
2022-12-17T13:41:13.088Z,-2.40
2022-12-17T13:48:25.719Z,-2.20
2022-12-17T13:55:27.435Z,-2.10
2022-12-17T14:02:39.342Z,-2.00
2022-12-17T14:09:43.070Z,-1.80
2022-12-17T14:16:50.449Z,-1.70
2022-12-17T14:23:52.458Z,-1.60
2022-12-17T14:31:29.599Z,-1.60
2022-12-17T14:38:37.895Z,-1.60
2022-12-17T14:45:58.910Z,-1.60
2022-12-17T14:53:01.875Z,-1.70
2022-12-17T15:00:07.588Z,-1.90
2022-12-17T15:07:16.205Z,-2.00
2022-12-17T15:14:19.089Z,-2.00
2022-12-17T15:21:19.824Z,-2.10
2022-12-17T15:28:21.547Z,-2.20
2022-12-17T15:35:22.036Z,-2.30
2022-12-17T15:42:41.052Z,-2.40
2022-12-17T15:49:41.471Z,-2.50
2022-12-17T15:56:42.026Z,-2.60
2022-12-17T16:03:42.489Z,-2.70
2022-12-17T16:10:42.860Z,-2.80
2022-12-17T16:17:43.176Z,-2.90
2022-12-17T16:24:43.424Z,-3.00
2022-12-17T16:31:44.000Z,-3.10
2022-12-17T16:38:46.589Z,-3.20
2022-12-17T16:45:49.373Z,-3.30
2022-12-17T16:52:50.153Z,-3.30
2022-12-17T16:59:50.708Z,-3.40
2022-12-17T17:06:56.369Z,-3.50
2022-12-17T17:13:56.754Z,-3.60
2022-12-17T17:21:16.160Z,-3.80
2022-12-17T17:28:16.204Z,-4.00
2022-12-17T17:35:16.877Z,-4.10
2022-12-17T17:42:17.431Z,-4.10
2022-12-17T17:49:18.058Z,-4.10
2022-12-17T17:56:21.723Z,-4.20
2022-12-17T18:03:21.917Z,-4.30
2022-12-17T18:10:22.454Z,-4.30
2022-12-17T18:17:22.965Z,-4.40
2022-12-17T18:24:23.369Z,-4.40
2022-12-17T18:31:26.458Z,-4.50
2022-12-17T18:38:26.896Z,-4.50
2022-12-17T18:45:27.583Z,-4.50
2022-12-17T18:52:28.208Z,-4.50
2022-12-17T18:59:30.619Z,-4.60
2022-12-17T19:06:32.568Z,-4.60
2022-12-17T19:13:34.590Z,-4.60
2022-12-17T19:20:34.606Z,-4.70
2022-12-17T19:27:35.142Z,-4.70
2022-12-17T19:34:35.536Z,-4.70
2022-12-17T19:41:35.943Z,-4.70
2022-12-17T19:48:41.271Z,-4.80
2022-12-17T19:55:44.162Z,-4.80
2022-12-17T20:02:44.606Z,-4.80
2022-12-17T20:09:45.168Z,-4.90
2022-12-17T20:16:48.311Z,-4.90
2022-12-17T20:23:49.535Z,-4.90
2022-12-17T20:30:49.835Z,-4.90
2022-12-17T20:37:50.168Z,-4.90
2022-12-17T20:44:53.562Z,-4.90
2022-12-17T20:51:54.277Z,-4.90
2022-12-17T20:59:02.200Z,-4.90
2022-12-17T21:06:09.650Z,-4.90
2022-12-17T21:13:28.798Z,-4.90
2022-12-17T21:20:29.233Z,-4.90
2022-12-17T21:27:29.809Z,-4.80
2022-12-17T21:34:32.284Z,-4.80
2022-12-17T21:41:34.946Z,-4.80
2022-12-17T21:48:41.624Z,-4.80
2022-12-17T21:55:42.657Z,-4.80
2022-12-17T22:02:43.118Z,-4.80
2022-12-17T22:10:02.875Z,-4.80
2022-12-17T22:17:03.618Z,-4.80
2022-12-17T22:24:05.367Z,-4.80
2022-12-17T22:31:30.090Z,-4.80
2022-12-17T22:41:33.081Z,-4.90
2022-12-17T22:45:52.306Z,-4.90
2022-12-17T22:52:54.796Z,-4.90
2022-12-17T22:59:55.787Z,-4.90
2022-12-17T23:06:56.344Z,-4.90
2022-12-17T23:13:57.363Z,-4.80
2022-12-17T23:21:09.037Z,-5.00
2022-12-17T23:28:09.438Z,-5.00
2022-12-17T23:35:10.878Z,-5.00
2022-12-17T23:42:11.355Z,-5.00
2022-12-17T23:49:15.099Z,-5.00
2022-12-17T23:56:26.500Z,-4.90
